Time;durP1;ratioP1;P1;durP2;ratioP2;P2;SDS_P1;SDS_P2;PMS_P1;PMS_P2;Temp;Humidity;BMP_temperature;BMP_pressure;BME280_temperature;BME280_humidity;BME280_pressure;Samples;Min_cycle;Max_cycle;Signal;HPM_P1;HPM_P2
2021/09/09 00:02:23;;;;;;;19.90;14.67;;;;;;;;;;5036147;28;20485;-48
2021/09/09 00:04:49;;;;;;;18.73;14.70;;;;;;;;;;5054016;28;20742;-48
2021/09/09 00:07:16;;;;;;;29.57;16.93;;;;;;;;;;5054006;28;20476;-47
2021/09/09 00:09:42;;;;;;;21.10;14.50;;;;;;;;;;5054148;28;20431;-47
2021/09/09 00:12:08;;;;;;;17.30;13.90;;;;;;;;;;5052560;28;20455;-48
2021/09/09 00:14:34;;;;;;;20.27;14.00;;;;;;;;;;5052913;28;20481;-48
2021/09/09 00:17:00;;;;;;;19.67;14.60;;;;;;;;;;5053627;28;20420;-47
2021/09/09 00:19:26;;;;;;;21.90;13.63;;;;;;;;;;5053852;28;20408;-48
2021/09/09 00:21:52;;;;;;;18.10;14.20;;;;;;;;;;5053697;28;21026;-47
2021/09/09 00:24:18;;;;;;;19.70;14.43;;;;;;;;;;5053345;28;20398;-48
2021/09/09 00:26:44;;;;;;;20.80;14.70;;;;;;;;;;5053428;28;20471;-48
2021/09/09 00:29:09;;;;;;;15.87;13.43;;;;;;;;;;5053616;28;20903;-48
2021/09/09 00:31:35;;;;;;;18.50;14.10;;;;;;;;;;5053617;28;20540;-47
2021/09/09 00:34:01;;;;;;;19.93;14.50;;;;;;;;;;5053665;28;20409;-48
2021/09/09 00:36:27;;;;;;;16.53;13.50;;;;;;;;;;5053113;28;20401;-48
2021/09/09 00:38:53;;;;;;;17.37;14.37;;;;;;;;;;5053466;28;20407;-48
2021/09/09 00:41:22;;;;;;;17.40;13.00;;;;;;;;;;5053121;28;20430;-48
2021/09/09 00:43:48;;;;;;;18.43;14.50;;;;;;;;;;5051525;28;20528;-48
2021/09/09 00:46:14;;;;;;;16.23;14.23;;;;;;;;;;5053166;28;20838;-48
2021/09/09 00:48:40;;;;;;;19.20;14.40;;;;;;;;;;5053219;28;20859;-48
2021/09/09 00:51:06;;;;;;;19.70;14.43;;;;;;;;;;5053209;28;20374;-48
2021/09/09 00:53:32;;;;;;;18.07;14.43;;;;;;;;;;5053514;28;20403;-48
2021/09/09 00:55:58;;;;;;;22.00;14.70;;;;;;;;;;5052945;28;20426;-48
2021/09/09 00:58:24;;;;;;;15.43;13.80;;;;;;;;;;5053030;28;21098;-48
2021/09/09 01:00:50;;;;;;;19.60;15.70;;;;;;;;;;5052621;28;20433;-47
2021/09/09 01:03:16;;;;;;;19.53;14.10;;;;;;;;;;5052511;28;20383;-48
2021/09/09 01:05:42;;;;;;;20.87;15.97;;;;;;;;;;5052115;28;20369;-48
2021/09/09 01:08:08;;;;;;;22.50;13.63;;;;;;;;;;5052379;28;20889;-48
2021/09/09 01:10:34;;;;;;;21.67;16.10;;;;;;;;;;5052744;28;20484;-48
2021/09/09 01:13:00;;;;;;;17.53;15.13;;;;;;;;;;5051512;28;20878;-48
2021/09/09 01:15:26;;;;;;;17.10;14.83;;;;;;;;;;5051901;28;20396;-48
2021/09/09 01:17:52;;;;;;;21.90;15.87;;;;;;;;;;5052670;28;20880;-48
2021/09/09 01:20:18;;;;;;;18.00;15.03;;;;;;;;;;5052645;28;20402;-48
2021/09/09 01:22:44;;;;;;;21.20;16.83;;;;;;;;;;5052510;28;20455;-47
2021/09/09 01:25:11;;;;;;;16.87;14.27;;;;;;;;;;5052297;28;20385;-47
2021/09/09 01:27:37;;;;;;;18.07;15.20;;;;;;;;;;5052599;28;20774;-48
2021/09/09 01:30:03;;;;;;;20.40;16.43;;;;;;;;;;5052471;28;20381;-48
2021/09/09 01:32:29;;;;;;;22.27;15.53;;;;;;;;;;5052554;28;20403;-48
2021/09/09 01:34:55;;;;;;;20.43;15.60;;;;;;;;;;5051672;28;20916;-47
2021/09/09 01:37:22;;;;;;;20.03;15.13;;;;;;;;;;5052209;28;20478;-48
2021/09/09 01:39:48;;;;;;;22.37;15.70;;;;;;;;;;5052259;28;20393;-48
2021/09/09 01:42:14;;;;;;;22.57;15.97;;;;;;;;;;5052168;28;20497;-48
2021/09/09 01:44:42;;;;;;;20.37;15.37;;;;;;;;;;5051103;28;20426;-48
2021/09/09 01:47:08;;;;;;;18.40;14.97;;;;;;;;;;5052014;28;20475;-48
2021/09/09 01:49:34;;;;;;;21.73;16.77;;;;;;;;;;5052135;28;20474;-48
2021/09/09 01:52:00;;;;;;;19.83;15.90;;;;;;;;;;5052079;28;20415;-48
2021/09/09 01:54:26;;;;;;;23.60;15.57;;;;;;;;;;5052069;28;20410;-48
2021/09/09 01:56:52;;;;;;;18.53;15.77;;;;;;;;;;5051793;28;20434;-48
2021/09/09 01:59:18;;;;;;;19.60;16.03;;;;;;;;;;5052019;28;20413;-48
2021/09/09 02:01:44;;;;;;;20.30;16.07;;;;;;;;;;5051861;28;20454;-49
2021/09/09 02:04:10;;;;;;;19.83;15.17;;;;;;;;;;5051972;28;20406;-48
2021/09/09 02:06:36;;;;;;;25.07;16.17;;;;;;;;;;5051930;28;20368;-46
2021/09/09 02:09:02;;;;;;;19.37;15.27;;;;;;;;;;5051805;28;20900;-46
2021/09/09 02:11:28;;;;;;;20.60;16.13;;;;;;;;;;5051838;28;20405;-46
2021/09/09 02:13:54;;;;;;;22.47;16.00;;;;;;;;;;5050692;28;20388;-49
2021/09/09 02:16:20;;;;;;;21.77;15.27;;;;;;;;;;5051418;28;20456;-46
2021/09/09 02:18:46;;;;;;;22.37;16.57;;;;;;;;;;5051743;28;20386;-46
2021/09/09 02:21:13;;;;;;;24.10;18.30;;;;;;;;;;5051594;28;20430;-46
2021/09/09 02:23:39;;;;;;;23.60;17.53;;;;;;;;;;5051691;28;20422;-46
2021/09/09 02:26:05;;;;;;;18.53;16.53;;;;;;;;;;5051533;28;20431;-46
2021/09/09 02:28:31;;;;;;;20.23;16.90;;;;;;;;;;5051563;28;20924;-46
2021/09/09 02:30:57;;;;;;;21.57;17.03;;;;;;;;;;5051621;28;20382;-46
2021/09/09 02:33:23;;;;;;;20.73;15.97;;;;;;;;;;5051644;28;20492;-46
2021/09/09 02:35:49;;;;;;;22.53;16.37;;;;;;;;;;5051447;28;20750;-46
2021/09/09 02:38:15;;;;;;;26.50;16.27;;;;;;;;;;5051375;28;20441;-46
2021/09/09 02:40:41;;;;;;;22.27;17.73;;;;;;;;;;5051502;28;20415;-46
2021/09/09 02:43:08;;;;;;;29.47;17.60;;;;;;;;;;5050727;28;20382;-49
2021/09/09 02:45:34;;;;;;;21.10;16.17;;;;;;;;;;5032628;28;20400;-47
2021/09/09 02:48:02;;;;;;;21.40;16.17;;;;;;;;;;5054992;28;20417;-48
2021/09/09 02:50:28;;;;;;;19.53;17.10;;;;;;;;;;5055462;28;20401;-48
2021/09/09 02:52:54;;;;;;;17.70;15.57;;;;;;;;;;5054267;28;20431;-48
2021/09/09 02:55:20;;;;;;;18.97;16.27;;;;;;;;;;5055249;28;20376;-48
2021/09/09 02:57:46;;;;;;;19.63;16.00;;;;;;;;;;5055431;28;21126;-46
2021/09/09 03:00:12;;;;;;;29.30;17.13;;;;;;;;;;5054198;28;20411;-46
2021/09/09 03:02:38;;;;;;;21.53;15.57;;;;;;;;;;5055274;28;20540;-46
2021/09/09 03:05:05;;;;;;;22.50;15.33;;;;;;;;;;5055104;28;20755;-50
2021/09/09 03:07:31;;;;;;;26.67;16.97;;;;;;;;;;5055011;28;20408;-49
2021/09/09 03:09:57;;;;;;;21.40;16.63;;;;;;;;;;5055141;28;20484;-47
2021/09/09 03:12:23;;;;;;;18.53;15.60;;;;;;;;;;5055086;28;20412;-48
2021/09/09 03:14:49;;;;;;;20.30;16.10;;;;;;;;;;5054027;28;20438;-49
2021/09/09 03:17:15;;;;;;;22.10;17.30;;;;;;;;;;5054745;28;20437;-46
2021/09/09 03:19:41;;;;;;;21.73;16.47;;;;;;;;;;5054889;28;20401;-46
2021/09/09 03:22:07;;;;;;;25.70;17.60;;;;;;;;;;5054765;28;20427;-46
2021/09/09 03:24:33;;;;;;;20.20;15.73;;;;;;;;;;5054911;28;20404;-46
2021/09/09 03:26:59;;;;;;;21.50;15.27;;;;;;;;;;5054633;28;20517;-46
2021/09/09 03:29:25;;;;;;;25.30;15.13;;;;;;;;;;5054836;28;20411;-46
2021/09/09 03:31:51;;;;;;;21.53;15.87;;;;;;;;;;5054683;28;20409;-46
2021/09/09 03:34:17;;;;;;;19.87;15.17;;;;;;;;;;5054724;28;20383;-47
2021/09/09 03:36:43;;;;;;;20.80;15.90;;;;;;;;;;5054260;28;20899;-47
2021/09/09 03:39:09;;;;;;;24.23;15.47;;;;;;;;;;5055182;28;20767;-48
2021/09/09 03:41:35;;;;;;;21.00;16.00;;;;;;;;;;5054359;28;20486;-48
2021/09/09 03:44:01;;;;;;;18.60;15.67;;;;;;;;;;5045795;28;20421;-48
2021/09/09 03:46:27;;;;;;;25.87;16.43;;;;;;;;;;5054286;28;20386;-48
2021/09/09 03:48:53;;;;;;;20.80;15.63;;;;;;;;;;5054388;28;20484;-47
2021/09/09 03:51:19;;;;;;;23.67;15.23;;;;;;;;;;5054274;28;20493;-48
2021/09/09 03:53:45;;;;;;;20.40;15.37;;;;;;;;;;5054370;28;20426;-48
2021/09/09 03:56:11;;;;;;;19.77;15.20;;;;;;;;;;5054113;28;20390;-47
2021/09/09 03:58:37;;;;;;;19.43;16.80;;;;;;;;;;5053451;28;20392;-47
2021/09/09 04:01:02;;;;;;;19.93;16.33;;;;;;;;;;5054076;28;20998;-48
2021/09/09 04:03:28;;;;;;;20.73;15.33;;;;;;;;;;5054724;28;20456;-48
2021/09/09 04:05:54;;;;;;;24.77;17.30;;;;;;;;;;5053922;28;20409;-47
2021/09/09 04:08:20;;;;;;;24.33;17.30;;;;;;;;;;5053999;28;20388;-47
2021/09/09 04:10:46;;;;;;;19.67;16.23;;;;;;;;;;5054005;28;20847;-47
2021/09/09 04:13:12;;;;;;;21.90;16.30;;;;;;;;;;5034107;28;20900;-48
2021/09/09 04:15:39;;;;;;;19.13;15.57;;;;;;;;;;5053793;28;20827;-48
2021/09/09 04:18:05;;;;;;;25.07;15.60;;;;;;;;;;5053823;28;20474;-47
2021/09/09 04:20:31;;;;;;;29.97;17.30;;;;;;;;;;5053751;28;20412;-48
2021/09/09 04:22:57;;;;;;;24.20;16.23;;;;;;;;;;5053691;28;20461;-47
2021/09/09 04:25:23;;;;;;;19.67;16.20;;;;;;;;;;5053596;28;20397;-48
2021/09/09 04:27:49;;;;;;;22.00;16.07;;;;;;;;;;5035743;28;20404;-48
2021/09/09 04:30:15;;;;;;;23.77;16.53;;;;;;;;;;5035767;28;20409;-48
2021/09/09 04:32:41;;;;;;;20.00;15.80;;;;;;;;;;5053433;28;20413;-47
2021/09/09 04:35:07;;;;;;;21.47;15.50;;;;;;;;;;5053574;28;20473;-47
2021/09/09 04:37:35;;;;;;;22.90;16.80;;;;;;;;;;5053152;28;20445;-47
2021/09/09 04:40:01;;;;;;;26.73;16.47;;;;;;;;;;5053457;28;20376;-48
2021/09/09 04:42:27;;;;;;;23.03;17.37;;;;;;;;;;5051660;28;20460;-47
2021/09/09 04:44:53;;;;;;;27.00;17.57;;;;;;;;;;5053379;28;20409;-47
2021/09/09 04:47:19;;;;;;;24.37;16.13;;;;;;;;;;5053038;28;20392;-47
2021/09/09 04:49:45;;;;;;;20.83;15.90;;;;;;;;;;5053212;28;20406;-48
2021/09/09 04:52:11;;;;;;;22.17;16.63;;;;;;;;;;5052311;28;20403;-48
2021/09/09 04:54:37;;;;;;;21.63;16.60;;;;;;;;;;5053262;28;20413;-48
2021/09/09 04:57:03;;;;;;;29.23;16.83;;;;;;;;;;5052909;28;20391;-48
2021/09/09 04:59:29;;;;;;;19.30;15.47;;;;;;;;;;5053120;28;20462;-48
2021/09/09 05:01:55;;;;;;;20.93;16.90;;;;;;;;;;5052896;28;20539;-48
2021/09/09 05:04:21;;;;;;;24.03;16.30;;;;;;;;;;5053133;28;20398;-48
2021/09/09 05:07:03;;;;;;;21.30;15.63;;;;;;;;;;5052555;28;20401;-48
2021/09/09 05:09:29;;;;;;;21.23;15.77;;;;;;;;;;5034395;28;20994;-48
2021/09/09 05:11:55;;;;;;;21.00;16.00;;;;;;;;;;5051452;28;20463;-48
2021/09/09 05:14:21;;;;;;;22.60;16.47;;;;;;;;;;5052797;28;20412;-48
2021/09/09 05:16:47;;;;;;;23.20;16.17;;;;;;;;;;5052631;28;20804;-48
2021/09/09 05:19:13;;;;;;;20.90;16.30;;;;;;;;;;5052557;28;20394;-48
2021/09/09 05:21:39;;;;;;;24.17;16.43;;;;;;;;;;5051605;28;20461;-48
2021/09/09 05:24:05;;;;;;;22.50;15.77;;;;;;;;;;5052670;28;20406;-48
2021/09/09 05:26:31;;;;;;;23.37;16.67;;;;;;;;;;5051224;28;20452;-48
2021/09/09 05:28:57;;;;;;;23.23;15.20;;;;;;;;;;5052615;28;20401;-48
2021/09/09 05:31:23;;;;;;;20.53;14.73;;;;;;;;;;5052429;28;20404;-48
2021/09/09 05:33:49;;;;;;;18.93;14.00;;;;;;;;;;5052367;28;20421;-48
2021/09/09 05:36:16;;;;;;;18.87;14.07;;;;;;;;;;5052262;28;20383;-48
2021/09/09 05:38:42;;;;;;;21.53;13.40;;;;;;;;;;5052244;28;20977;-48
2021/09/09 05:41:08;;;;;;;18.80;14.53;;;;;;;;;;5052253;28;20423;-48
2021/09/09 05:43:34;;;;;;;19.70;13.03;;;;;;;;;;5052294;28;20475;-47
2021/09/09 05:46:00;;;;;;;19.80;14.27;;;;;;;;;;5051031;28;20889;-48
2021/09/09 05:48:26;;;;;;;29.40;14.80;;;;;;;;;;5052076;28;20449;-48
2021/09/09 05:50:52;;;;;;;19.33;15.80;;;;;;;;;;5052111;28;20870;-48
2021/09/09 05:53:18;;;;;;;21.53;15.07;;;;;;;;;;5052224;28;20389;-48
2021/09/09 05:55:44;;;;;;;24.07;13.93;;;;;;;;;;5051946;28;20409;-48
2021/09/09 05:58:10;;;;;;;22.37;15.37;;;;;;;;;;5052021;28;20524;-48
2021/09/09 06:00:36;;;;;;;22.80;13.80;;;;;;;;;;5034142;28;20899;-48
2021/09/09 06:03:02;;;;;;;22.47;15.10;;;;;;;;;;5051789;28;20532;-48
2021/09/09 06:05:29;;;;;;;25.57;14.80;;;;;;;;;;5051512;28;20379;-48
2021/09/09 06:07:55;;;;;;;21.33;15.90;;;;;;;;;;5051328;28;20397;-48
2021/09/09 06:10:21;;;;;;;25.63;15.53;;;;;;;;;;5051163;28;20497;-48
2021/09/09 06:12:47;;;;;;;20.33;14.40;;;;;;;;;;5049361;28;20932;-48
2021/09/09 06:15:13;;;;;;;29.27;14.20;;;;;;;;;;5051167;28;20411;-47
2021/09/09 06:17:39;;;;;;;21.63;14.73;;;;;;;;;;5050885;28;20439;-48
2021/09/09 06:20:06;;;;;;;22.07;15.37;;;;;;;;;;5051201;28;20902;-48
2021/09/09 06:22:31;;;;;;;22.03;15.07;;;;;;;;;;5050566;28;20462;-48
2021/09/09 06:24:57;;;;;;;17.73;13.17;;;;;;;;;;5051169;28;20403;-48
2021/09/09 06:27:23;;;;;;;21.13;14.80;;;;;;;;;;5050744;28;20394;-48
2021/09/09 06:29:49;;;;;;;20.33;13.27;;;;;;;;;;5051138;28;20449;-48
2021/09/09 06:32:15;;;;;;;21.00;13.37;;;;;;;;;;5050764;28;20407;-48
2021/09/09 06:34:41;;;;;;;16.93;13.30;;;;;;;;;;5051111;28;20372;-48
2021/09/09 06:37:07;;;;;;;18.57;14.20;;;;;;;;;;5055869;28;20850;-48
2021/09/09 06:39:33;;;;;;;17.03;13.20;;;;;;;;;;5050871;28;20389;-48
2021/09/09 06:41:59;;;;;;;17.93;13.70;;;;;;;;;;5049963;28;20427;-48
2021/09/09 06:44:25;;;;;;;20.63;13.73;;;;;;;;;;5050607;28;20405;-48
2021/09/09 06:46:51;;;;;;;17.27;12.47;;;;;;;;;;5032776;28;20445;-48
2021/09/09 06:49:17;;;;;;;21.20;13.67;;;;;;;;;;5051102;28;20628;-48
2021/09/09 06:51:43;;;;;;;16.37;13.00;;;;;;;;;;5051434;28;20905;-48
2021/09/09 06:54:09;;;;;;;26.13;13.20;;;;;;;;;;5050752;28;20796;-48
2021/09/09 06:56:35;;;;;;;17.00;13.23;;;;;;;;;;5051152;28;20540;-48
2021/09/09 06:59:01;;;;;;;17.60;13.30;;;;;;;;;;5051394;28;20442;-48
2021/09/09 07:01:27;;;;;;;17.80;12.10;;;;;;;;;;5051263;28;20464;-47
2021/09/09 07:03:53;;;;;;;16.07;12.23;;;;;;;;;;5051328;28;20896;-48
2021/09/09 07:06:19;;;;;;;19.30;11.93;;;;;;;;;;5051238;28;20450;-48
2021/09/09 07:08:45;;;;;;;18.40;11.53;;;;;;;;;;5051313;28;20407;-48
2021/09/09 07:11:11;;;;;;;12.93;10.40;;;;;;;;;;5050315;28;20429;-48
2021/09/09 07:13:37;;;;;;;12.57;10.13;;;;;;;;;;5050782;28;20431;-48
2021/09/09 07:16:03;;;;;;;12.53;10.70;;;;;;;;;;5051067;28;20401;-49
2021/09/09 07:18:29;;;;;;;13.60;11.50;;;;;;;;;;5051131;28;20428;-48
2021/09/09 07:20:56;;;;;;;11.57;10.03;;;;;;;;;;5051063;28;20455;-49
2021/09/09 07:23:22;;;;;;;12.40;10.10;;;;;;;;;;5051253;28;20401;-48
2021/09/09 07:25:49;;;;;;;13.57;10.00;;;;;;;;;;5033151;28;20923;-49
2021/09/09 07:28:15;;;;;;;14.60;9.43;;;;;;;;;;5051106;28;20417;-49
2021/09/09 07:30:41;;;;;;;13.33;9.10;;;;;;;;;;5051123;28;20401;-49
2021/09/09 07:33:07;;;;;;;12.50;9.10;;;;;;;;;;5051363;28;20404;-49
2021/09/09 07:35:33;;;;;;;13.83;9.60;;;;;;;;;;5054743;28;20409;-49
2021/09/09 07:38:00;;;;;;;11.67;9.70;;;;;;;;;;5054491;28;20490;-49
2021/09/09 07:40:26;;;;;;;11.33;9.80;;;;;;;;;;5054666;28;20405;-49
2021/09/09 07:42:52;;;;;;;9.50;8.60;;;;;;;;;;5053488;28;20559;-49
2021/09/09 07:45:18;;;;;;;9.73;8.60;;;;;;;;;;5054512;28;20427;-49
2021/09/09 07:47:44;;;;;;;9.27;7.50;;;;;;;;;;5054352;28;20787;-49
2021/09/09 07:50:10;;;;;;;9.80;7.97;;;;;;;;;;5027947;28;20929;-48
2021/09/09 07:52:37;;;;;;;7.67;6.83;;;;;;;;;;5032509;28;20464;-49
2021/09/09 07:55:03;;;;;;;9.13;8.23;;;;;;;;;;5044510;28;20448;-49
2021/09/09 07:57:29;;;;;;;10.00;8.30;;;;;;;;;;5053971;28;20425;-49
2021/09/09 07:59:55;;;;;;;10.47;8.60;;;;;;;;;;5036232;28;20436;-48
2021/09/09 08:02:21;;;;;;;11.07;8.00;;;;;;;;;;5054020;28;20457;-49
2021/09/09 08:04:47;;;;;;;9.30;8.40;;;;;;;;;;5033701;28;20406;-49
2021/09/09 08:07:13;;;;;;;9.03;7.73;;;;;;;;;;5053961;28;20199;-49
2021/09/09 08:09:39;;;;;;;12.27;7.63;;;;;;;;;;5053865;28;20406;-49
2021/09/09 08:12:06;;;;;;;7.60;6.67;;;;;;;;;;5052771;28;20179;-49
2021/09/09 08:14:32;;;;;;;7.70;6.90;;;;;;;;;;5053829;28;20994;-50
2021/09/09 08:16:58;;;;;;;10.00;7.17;;;;;;;;;;5053398;28;20520;-49
2021/09/09 08:19:24;;;;;;;8.37;7.17;;;;;;;;;;5053734;28;20405;-49
2021/09/09 08:21:50;;;;;;;8.03;7.33;;;;;;;;;;5053400;28;20445;-49
2021/09/09 08:24:16;;;;;;;11.07;7.70;;;;;;;;;;5053685;28;20776;-49
2021/09/09 08:26:42;;;;;;;8.37;7.33;;;;;;;;;;5053337;28;20449;-49
2021/09/09 08:29:08;;;;;;;8.43;7.63;;;;;;;;;;5053681;28;20790;-50
2021/09/09 08:31:34;;;;;;;9.00;7.30;;;;;;;;;;5053615;28;20405;-49
2021/09/09 08:34:00;;;;;;;7.83;7.10;;;;;;;;;;5053676;28;20221;-49
2021/09/09 08:36:26;;;;;;;7.63;6.80;;;;;;;;;;5053212;28;20881;-49
2021/09/09 08:38:52;;;;;;;9.30;7.70;;;;;;;;;;5053622;28;20816;-49
2021/09/09 08:41:18;;;;;;;9.43;7.53;;;;;;;;;;5053534;28;20445;-49
2021/09/09 08:43:45;;;;;;;11.87;6.67;;;;;;;;;;5052149;28;20558;-50
2021/09/09 08:46:12;;;;;;;7.17;6.33;;;;;;;;;;5051653;28;20421;-49
2021/09/09 08:48:39;;;;;;;8.43;7.57;;;;;;;;;;5051408;28;20435;-49
2021/09/09 08:51:05;;;;;;;7.40;6.80;;;;;;;;;;5053067;28;20401;-49
2021/09/09 08:53:31;;;;;;;7.50;6.80;;;;;;;;;;5053080;28;20890;-50
2021/09/09 08:55:57;;;;;;;7.37;6.80;;;;;;;;;;5052845;28;20397;-49
2021/09/09 08:58:23;;;;;;;7.03;6.33;;;;;;;;;;5053019;28;20495;-49
2021/09/09 09:01:07;;;;;;;7.53;6.83;;;;;;;;;;5052860;28;20912;-49
2021/09/09 09:03:43;;;;;;;8.57;7.03;;;;;;;;;;5053141;28;20467;-49
2021/09/09 09:06:30;;;;;;;9.60;6.60;;;;;;;;;;5052857;28;20401;-50
2021/09/09 09:08:56;;;;;;;7.23;6.53;;;;;;;;;;5052957;28;20416;-49
2021/09/09 09:11:35;;;;;;;7.47;6.77;;;;;;;;;;5052841;28;20488;-49
2021/09/09 09:14:02;;;;;;;7.50;6.90;;;;;;;;;;5050907;28;20445;-50
2021/09/09 09:16:29;;;;;;;8.07;7.00;;;;;;;;;;5051879;28;20524;-49
2021/09/09 09:19:01;;;;;;;8.20;7.00;;;;;;;;;;5052575;28;20444;-49
2021/09/09 09:21:28;;;;;;;10.70;8.70;;;;;;;;;;5052675;28;20456;-49
2021/09/09 09:23:55;;;;;;;7.47;6.67;;;;;;;;;;5052655;28;20394;-50
2021/09/09 09:26:21;;;;;;;9.00;6.77;;;;;;;;;;5052375;28;20389;-49
2021/09/09 09:28:49;;;;;;;7.30;6.60;;;;;;;;;;5052450;28;20452;-50
2021/09/09 09:31:17;;;;;;;10.40;7.30;;;;;;;;;;5052365;28;20436;-50
2021/09/09 09:33:44;;;;;;;7.60;6.80;;;;;;;;;;5052480;28;21071;-49
2021/09/09 09:36:14;;;;;;;11.20;7.40;;;;;;;;;;5052254;28;20404;-49
2021/09/09 09:38:40;;;;;;;8.40;7.13;;;;;;;;;;5052795;28;20491;-48
2021/09/09 09:41:06;;;;;;;9.20;7.17;;;;;;;;;;5034317;28;20405;-49
2021/09/09 09:43:32;;;;;;;10.20;7.27;;;;;;;;;;5052199;28;20748;-49
2021/09/09 09:45:59;;;;;;;13.93;7.53;;;;;;;;;;5051849;28;20405;-49
2021/09/09 09:48:25;;;;;;;8.10;7.30;;;;;;;;;;5052094;28;20186;-48
2021/09/09 09:50:51;;;;;;;8.10;7.33;;;;;;;;;;5051983;28;20462;-48
2021/09/09 09:53:18;;;;;;;7.07;6.37;;;;;;;;;;5050590;28;20828;-48
2021/09/09 09:55:45;;;;;;;7.90;7.20;;;;;;;;;;5051636;28;20789;-48
2021/09/09 09:58:11;;;;;;;7.17;6.57;;;;;;;;;;5051805;28;20418;-48
2021/09/09 10:00:37;;;;;;;6.90;6.23;;;;;;;;;;5051928;28;20416;-48
2021/09/09 10:03:03;;;;;;;8.93;7.17;;;;;;;;;;5051852;28;20471;-48
2021/09/09 10:05:32;;;;;;;11.30;10.30;;;;;;;;;;5051987;28;20163;-48
2021/09/09 10:07:59;;;;;;;9.67;7.07;;;;;;;;;;5049848;28;20441;-49
2021/09/09 10:10:25;;;;;;;7.70;6.90;;;;;;;;;;5051082;28;20929;-48
2021/09/09 10:12:52;;;;;;;6.63;5.93;;;;;;;;;;5051144;28;20493;-49
2021/09/09 10:15:20;;;;;;;10.63;6.80;;;;;;;;;;5049891;28;20409;-49
2021/09/09 10:17:46;;;;;;;8.60;6.27;;;;;;;;;;5050277;28;20416;-49
2021/09/09 10:20:29;;;;;;;7.30;5.87;;;;;;;;;;5051125;28;20436;-49
2021/09/09 10:23:01;;;;;;;6.97;6.40;;;;;;;;;;5051399;28;20968;-50
2021/09/09 10:25:39;;;;;;;7.80;6.37;;;;;;;;;;5051659;28;20939;-50
2021/09/09 10:28:25;;;;;;;6.67;6.17;;;;;;;;;;5049553;28;20421;-49
2021/09/09 10:31:02;;;;;;;6.37;5.77;;;;;;;;;;5031520;28;20405;-48
2021/09/09 10:33:28;;;;;;;9.27;6.57;;;;;;;;;;5031666;28;20432;-49
2021/09/09 10:35:54;;;;;;;8.27;7.10;;;;;;;;;;5031440;28;20486;-48
2021/09/09 10:38:23;;;;;;;7.20;6.50;;;;;;;;;;5031495;28;20445;-50
2021/09/09 10:40:49;;;;;;;7.23;6.43;;;;;;;;;;5031587;28;20767;-49
2021/09/09 10:43:37;;;;;;;7.17;6.50;;;;;;;;;;5031646;28;20505;-49
2021/09/09 10:46:09;;;;;;;7.53;6.60;;;;;;;;;;5031598;28;20836;-49
2021/09/09 10:48:35;;;;;;;8.03;6.60;;;;;;;;;;5031466;28;20433;-49
2021/09/09 10:51:02;;;;;;;6.50;6.00;;;;;;;;;;5031405;28;20406;-49
2021/09/09 10:53:34;;;;;;;6.50;5.90;;;;;;;;;;5031402;28;20887;-49
2021/09/09 10:56:09;;;;;;;8.20;6.63;;;;;;;;;;5049510;28;20533;-49
2021/09/09 10:58:36;;;;;;;7.20;6.60;;;;;;;;;;5051149;28;20458;-48
2021/09/09 11:01:02;;;;;;;8.20;6.60;;;;;;;;;;5049871;28;20405;-50
2021/09/09 11:03:34;;;;;;;6.40;5.80;;;;;;;;;;5050053;28;20397;-49
2021/09/09 11:06:01;;;;;;;13.00;6.13;;;;;;;;;;5050173;28;20825;-49
2021/09/09 11:08:28;;;;;;;8.77;7.07;;;;;;;;;;5053840;28;20425;-48
2021/09/09 11:10:54;;;;;;;7.77;7.07;;;;;;;;;;5054455;28;20896;-50
2021/09/09 11:13:24;;;;;;;7.20;6.50;;;;;;;;;;5054308;28;20394;-50
2021/09/09 11:15:49;;;;;;;6.77;6.17;;;;;;;;;;5055002;28;20872;-47
2021/09/09 11:18:23;;;;;;;9.03;7.20;;;;;;;;;;5054846;28;20981;-48
2021/09/09 11:20:49;;;;;;;9.80;6.40;;;;;;;;;;5054903;28;20173;-51
2021/09/09 11:23:15;;;;;;;8.67;6.90;;;;;;;;;;5054611;28;20500;-51
2021/09/09 11:25:41;;;;;;;7.27;6.20;;;;;;;;;;5052999;28;20602;-48
2021/09/09 11:28:17;;;;;;;8.73;7.07;;;;;;;;;;5053084;28;20590;-47
2021/09/09 11:30:43;;;;;;;7.00;6.40;;;;;;;;;;5054836;28;20984;-47
2021/09/09 11:33:09;;;;;;;7.40;6.80;;;;;;;;;;5048535;28;20416;-48
2021/09/09 11:35:36;;;;;;;7.30;6.60;;;;;;;;;;5043545;28;20405;-48
2021/09/09 11:38:01;;;;;;;7.37;6.43;;;;;;;;;;5043231;28;20454;-47
2021/09/09 11:40:27;;;;;;;6.43;5.93;;;;;;;;;;5038403;28;20416;-48
2021/09/09 11:43:01;;;;;;;8.53;6.30;;;;;;;;;;5043411;28;20479;-48
2021/09/09 11:45:27;;;;;;;9.77;6.60;;;;;;;;;;5044080;28;20406;-49
2021/09/09 11:48:01;;;;;;;8.40;7.00;;;;;;;;;;5047665;28;20488;-50
2021/09/09 11:50:27;;;;;;;8.70;7.57;;;;;;;;;;5042004;28;20401;-50
2021/09/09 11:53:07;;;;;;;6.93;6.30;;;;;;;;;;5042347;28;20409;-48
2021/09/09 11:55:33;;;;;;;9.77;7.43;;;;;;;;;;5043525;28;20475;-49
2021/09/09 11:57:59;;;;;;;8.87;6.53;;;;;;;;;;5017299;28;20805;-49
2021/09/09 12:00:26;;;;;;;14.30;7.07;;;;;;;;;;5032719;28;20452;-48
2021/09/09 12:02:53;;;;;;;7.60;6.60;;;;;;;;;;5032279;28;20205;-51
2021/09/09 12:05:19;;;;;;;7.20;6.57;;;;;;;;;;5051458;28;20947;-49
2021/09/09 12:07:45;;;;;;;6.83;6.23;;;;;;;;;;5058773;28;20436;-49
2021/09/09 12:10:15;;;;;;;6.97;6.00;;;;;;;;;;5054289;28;20490;-48
2021/09/09 12:12:54;;;;;;;7.03;6.33;;;;;;;;;;5052989;28;20464;-50
2021/09/09 12:15:23;;;;;;;8.03;7.23;;;;;;;;;;5053623;28;20401;-48
2021/09/09 12:17:48;;;;;;;9.57;6.93;;;;;;;;;;5053405;28;20425;-47
2021/09/09 12:20:25;;;;;;;8.53;7.47;;;;;;;;;;5052353;28;20972;-48
2021/09/09 12:22:58;;;;;;;7.47;6.83;;;;;;;;;;5034056;28;20517;-48
2021/09/09 12:25:30;;;;;;;7.30;6.63;;;;;;;;;;5049888;28;20453;-50
2021/09/09 12:28:04;;;;;;;7.67;6.80;;;;;;;;;;5051519;28;20425;-48
2021/09/09 12:30:30;;;;;;;7.33;6.63;;;;;;;;;;5051697;28;20523;-50
2021/09/09 12:32:56;;;;;;;8.57;7.40;;;;;;;;;;5051559;28;20431;-50
2021/09/09 12:35:23;;;;;;;7.27;6.53;;;;;;;;;;5051722;28;20902;-51
2021/09/09 12:38:09;;;;;;;7.47;6.80;;;;;;;;;;5051249;28;20456;-49
2021/09/09 12:40:42;;;;;;;7.13;6.43;;;;;;;;;;5052892;28;20433;-50
2021/09/09 12:43:22;;;;;;;15.73;7.13;;;;;;;;;;5053364;28;20456;-48
2021/09/09 12:45:48;;;;;;;9.70;6.73;;;;;;;;;;5053444;28;20779;-48
2021/09/09 12:48:13;;;;;;;7.80;6.23;;;;;;;;;;5053194;28;20512;-48
2021/09/09 12:50:40;;;;;;;7.50;6.87;;;;;;;;;;5053432;28;20440;-49
2021/09/09 12:53:05;;;;;;;11.13;7.00;;;;;;;;;;5053249;28;20167;-49
2021/09/09 12:55:31;;;;;;;9.60;7.87;;;;;;;;;;5052158;28;20433;-51
2021/09/09 12:57:57;;;;;;;9.90;7.10;;;;;;;;;;5052963;28;20194;-48
2021/09/09 13:00:23;;;;;;;10.60;7.83;;;;;;;;;;5053190;28;20198;-48
2021/09/09 13:02:49;;;;;;;11.37;7.30;;;;;;;;;;5053057;28;20547;-48
2021/09/09 13:05:15;;;;;;;10.80;8.40;;;;;;;;;;5053059;28;20437;-48
2021/09/09 13:07:41;;;;;;;8.40;7.10;;;;;;;;;;5052776;28;20429;-48
2021/09/09 13:10:08;;;;;;;13.53;8.30;;;;;;;;;;5052660;28;20788;-48
2021/09/09 13:12:34;;;;;;;9.80;7.83;;;;;;;;;;5053080;28;20467;-48
2021/09/09 13:15:00;;;;;;;12.20;6.93;;;;;;;;;;5052786;28;20433;-47
2021/09/09 13:17:26;;;;;;;12.87;8.67;;;;;;;;;;5052661;28;20428;-48
2021/09/09 13:19:54;;;;;;;9.67;8.67;;;;;;;;;;5052825;28;20409;-47
2021/09/09 13:22:20;;;;;;;13.70;9.33;;;;;;;;;;5052636;28;21035;-48
2021/09/09 13:24:46;;;;;;;15.53;8.43;;;;;;;;;;5051589;28;20401;-48
2021/09/09 13:27:12;;;;;;;11.83;8.53;;;;;;;;;;5052128;28;20433;-48
2021/09/09 13:29:38;;;;;;;11.23;8.67;;;;;;;;;;5052167;28;20293;-49
2021/09/09 13:32:04;;;;;;;9.20;8.30;;;;;;;;;;5050362;28;20463;-49
2021/09/09 13:34:30;;;;;;;11.67;9.07;;;;;;;;;;5052466;28;20550;-49
2021/09/09 13:36:56;;;;;;;9.37;8.57;;;;;;;;;;5052111;28;20944;-51
2021/09/09 13:39:22;;;;;;;10.17;8.57;;;;;;;;;;5052288;28;20417;-51
2021/09/09 13:41:48;;;;;;;12.87;8.37;;;;;;;;;;5052256;28;20453;-47
2021/09/09 13:44:14;;;;;;;13.80;9.17;;;;;;;;;;5052364;28;20425;-48
2021/09/09 13:46:40;;;;;;;10.60;9.40;;;;;;;;;;5052120;28;20406;-50
2021/09/09 13:49:06;;;;;;;12.03;10.20;;;;;;;;;;5052281;28;20966;-48
2021/09/09 13:51:32;;;;;;;14.97;10.90;;;;;;;;;;5052198;28;20786;-48
2021/09/09 13:53:58;;;;;;;12.27;8.77;;;;;;;;;;5052153;28;20393;-48
2021/09/09 13:56:24;;;;;;;12.50;9.40;;;;;;;;;;5050212;28;20185;-48
2021/09/09 13:58:50;;;;;;;12.40;10.27;;;;;;;;;;5052102;28;20664;-48
2021/09/09 14:01:16;;;;;;;15.50;10.63;;;;;;;;;;5051940;28;20647;-48
2021/09/09 14:03:42;;;;;;;13.53;9.97;;;;;;;;;;5052081;28;20570;-48
2021/09/09 14:06:08;;;;;;;10.20;9.30;;;;;;;;;;5052019;28;20537;-50
2021/09/09 14:08:34;;;;;;;11.20;9.23;;;;;;;;;;5051650;28;20602;-50
2021/09/09 14:11:00;;;;;;;16.40;10.07;;;;;;;;;;5051826;28;20397;-48
2021/09/09 14:13:26;;;;;;;10.50;9.33;;;;;;;;;;5051915;28;20401;-47
2021/09/09 14:15:52;;;;;;;11.63;10.47;;;;;;;;;;5049695;28;20409;-48
2021/09/09 14:18:18;;;;;;;11.57;9.67;;;;;;;;;;5051427;28;20425;-48
2021/09/09 14:20:46;;;;;;;9.83;8.97;;;;;;;;;;5051770;28;20480;-48
2021/09/09 14:23:12;;;;;;;11.43;9.60;;;;;;;;;;5051509;28;20461;-47
2021/09/09 14:25:38;;;;;;;9.20;8.23;;;;;;;;;;5050427;28;20428;-47
2021/09/09 14:28:04;;;;;;;9.43;8.20;;;;;;;;;;5051320;28;20421;-47